createdAt,value
2019-04-28T00:01:23.910Z,12.20
2019-04-28T00:03:54.225Z,11.80
2019-04-28T00:06:24.702Z,11.13
2019-04-28T00:08:55.101Z,10.60
2019-04-28T00:11:25.413Z,11.03
2019-04-28T00:13:56.849Z,11.33
2019-04-28T00:16:27.238Z,10.43
2019-04-28T00:18:57.635Z,9.33
2019-04-28T00:21:51.666Z,8.87
2019-04-28T00:24:34.163Z,7.87
2019-04-28T00:27:06.809Z,9.30
2019-04-28T00:29:41.207Z,9.13
2019-04-28T00:32:11.044Z,12.07
2019-04-28T00:34:41.441Z,9.33
2019-04-28T00:37:31.945Z,11.87
2019-04-28T00:40:02.558Z,10.27
2019-04-28T00:42:32.945Z,12.67
2019-04-28T00:45:03.730Z,11.77
2019-04-28T00:47:34.158Z,11.83
2019-04-28T00:50:06.686Z,13.77
2019-04-28T00:52:37.196Z,19.17
2019-04-28T00:55:08.664Z,15.30
2019-04-28T00:57:40.851Z,12.87
2019-04-28T01:00:11.909Z,15.73
2019-04-28T01:02:43.150Z,13.03
2019-04-28T01:05:14.149Z,13.13
2019-04-28T01:07:44.468Z,17.57
2019-04-28T01:10:16.066Z,13.17
2019-04-28T01:12:46.826Z,15.37
2019-04-28T01:15:33.381Z,16.30
2019-04-28T01:18:20.331Z,13.70
2019-04-28T01:20:51.460Z,12.77
2019-04-28T01:23:21.958Z,12.77
2019-04-28T01:25:52.336Z,14.90
2019-04-28T01:28:22.789Z,16.10
2019-04-28T01:31:19.571Z,14.10
2019-04-28T01:34:10.262Z,14.50
2019-04-28T01:36:40.936Z,12.13
2019-04-28T01:39:11.237Z,17.60
2019-04-28T01:41:41.553Z,18.20
2019-04-28T01:44:11.959Z,18.57
2019-04-28T01:46:42.286Z,18.07
2019-04-28T01:49:12.641Z,15.17
2019-04-28T01:51:43.041Z,17.43
2019-04-28T01:54:13.341Z,16.30
2019-04-28T01:56:43.677Z,19.60
2019-04-28T01:59:13.991Z,15.87
2019-04-28T02:01:44.349Z,14.80
2019-04-28T02:04:14.654Z,12.53
2019-04-28T02:06:44.982Z,18.57
2019-04-28T02:09:15.273Z,14.87
2019-04-28T02:11:45.745Z,18.47
2019-04-28T02:14:17.044Z,17.40
2019-04-28T02:16:47.289Z,18.27
2019-04-28T02:19:17.606Z,13.87
2019-04-28T02:21:54.266Z,14.80
2019-04-28T02:24:35.268Z,15.90
2019-04-28T02:27:05.984Z,15.37
2019-04-28T02:29:36.297Z,14.27
2019-04-28T02:32:10.307Z,14.30
2019-04-28T02:34:41.068Z,13.60
2019-04-28T02:37:11.893Z,20.80
2019-04-28T02:39:42.297Z,16.47
2019-04-28T02:42:12.764Z,13.23
2019-04-28T02:44:43.095Z,18.83
2019-04-28T02:47:13.421Z,17.17
2019-04-28T02:50:04.576Z,13.80
2019-04-28T02:53:12.543Z,15.70
2019-04-28T02:55:42.930Z,14.33
2019-04-28T02:58:13.660Z,12.77
2019-04-28T03:01:01.445Z,14.67
2019-04-28T03:03:16.146Z,11.10
2019-04-28T03:05:46.456Z,10.67
2019-04-28T03:08:16.774Z,18.90
2019-04-28T03:10:47.200Z,16.07
2019-04-28T03:13:17.564Z,10.37
2019-04-28T03:15:47.891Z,11.17
2019-04-28T03:18:21.204Z,14.43
2019-04-28T03:20:51.523Z,9.90
2019-04-28T03:23:22.209Z,13.07
2019-04-28T03:26:12.378Z,11.03
2019-04-28T03:28:51.570Z,12.47
2019-04-28T03:32:03.795Z,10.20
2019-04-28T03:34:12.982Z,13.80
2019-04-28T03:36:41.397Z,12.93
2019-04-28T03:39:11.741Z,13.57
2019-04-28T03:41:42.042Z,8.83
2019-04-28T03:44:12.399Z,11.90
2019-04-28T03:46:51.171Z,14.20
2019-04-28T03:49:33.047Z,13.23
2019-04-28T03:52:04.583Z,13.00
2019-04-28T03:54:35.058Z,11.53
2019-04-28T03:57:07.396Z,12.60
2019-04-28T03:59:37.780Z,11.50
2019-04-28T04:02:10.968Z,8.63
2019-04-28T04:04:41.369Z,13.77
2019-04-28T04:07:12.082Z,12.00
2019-04-28T04:09:56.606Z,12.50
2019-04-28T04:12:44.866Z,12.93
2019-04-28T04:15:41.708Z,7.80
2019-04-28T04:18:16.898Z,14.53
2019-04-28T04:20:47.410Z,12.47
2019-04-28T04:23:22.705Z,12.20
2019-04-28T04:25:51.319Z,13.80
2019-04-28T04:28:21.926Z,10.93
2019-04-28T04:30:52.233Z,9.37
2019-04-28T04:33:22.580Z,9.60
2019-04-28T04:35:52.931Z,13.57
2019-04-28T04:38:23.339Z,12.60
2019-04-28T04:40:55.058Z,10.20
2019-04-28T04:43:25.426Z,14.37
2019-04-28T04:46:14.245Z,18.60
2019-04-28T04:48:45.423Z,12.00
2019-04-28T04:51:15.733Z,12.87
2019-04-28T04:53:46.089Z,12.97
2019-04-28T04:56:16.478Z,12.53
2019-04-28T04:58:46.929Z,10.57
2019-04-28T05:01:36.318Z,15.27
2019-04-28T05:04:16.365Z,12.97
2019-04-28T05:06:46.693Z,15.33
2019-04-28T05:09:17.117Z,14.17
2019-04-28T05:11:47.473Z,14.13
2019-04-28T05:14:19.651Z,13.80
2019-04-28T05:16:49.882Z,10.63
2019-04-28T05:19:20.286Z,10.27
2019-04-28T05:21:50.773Z,10.10
2019-04-28T05:24:40.295Z,10.83
2019-04-28T05:27:10.847Z,12.67
2019-04-28T05:29:41.187Z,8.40
2019-04-28T05:32:11.498Z,14.63
2019-04-28T05:34:46.809Z,9.57
2019-04-28T05:37:13.917Z,15.57
2019-04-28T05:39:44.310Z,7.20
2019-04-28T05:42:14.701Z,9.77
2019-04-28T05:44:45.112Z,12.53
2019-04-28T05:47:15.541Z,15.77
2019-04-28T05:50:03.797Z,12.03
2019-04-28T05:53:02.370Z,12.57
2019-04-28T05:56:04.036Z,8.40
2019-04-28T05:58:43.026Z,9.63
2019-04-28T06:01:23.774Z,15.10
2019-04-28T06:03:54.101Z,10.60
2019-04-28T06:06:27.525Z,14.80
2019-04-28T06:09:11.001Z,13.53
2019-04-28T06:11:42.438Z,12.37
2019-04-28T06:14:12.747Z,12.43
2019-04-28T06:16:43.080Z,13.10
2019-04-28T06:19:13.462Z,9.00
2019-04-28T06:21:43.818Z,12.37
2019-04-28T06:24:14.145Z,13.17
2019-04-28T06:26:44.522Z,15.77
2019-04-28T06:29:14.877Z,11.73
2019-04-28T06:31:45.350Z,11.33
2019-04-28T06:34:15.748Z,7.67
2019-04-28T06:36:46.238Z,10.07
2019-04-28T06:39:16.606Z,12.90
2019-04-28T06:41:48.142Z,11.80
2019-04-28T06:44:18.400Z,14.87
2019-04-28T06:46:48.726Z,15.37
2019-04-28T06:49:19.026Z,11.47
2019-04-28T06:51:49.406Z,14.10
2019-04-28T06:54:19.850Z,10.03
2019-04-28T06:56:50.278Z,9.63
2019-04-28T06:59:20.601Z,10.70
2019-04-28T07:01:51.062Z,11.83
2019-04-28T07:04:21.395Z,12.33
2019-04-28T07:06:52.001Z,11.37
2019-04-28T07:09:22.417Z,10.20
2019-04-28T07:11:52.878Z,11.37
2019-04-28T07:14:23.281Z,14.33
2019-04-28T07:16:53.669Z,11.67
2019-04-28T07:19:23.980Z,13.23
2019-04-28T07:22:13.390Z,10.87
2019-04-28T07:24:44.950Z,15.37
2019-04-28T07:27:15.452Z,14.53
2019-04-28T07:29:45.769Z,13.20
2019-04-28T07:32:16.167Z,12.70
2019-04-28T07:34:47.460Z,10.83
2019-04-28T07:37:17.747Z,9.90
2019-04-28T07:39:48.093Z,14.63
2019-04-28T07:42:18.795Z,14.20
2019-04-28T07:44:49.317Z,11.37
2019-04-28T07:47:19.770Z,12.30
2019-04-28T07:49:55.608Z,11.43
2019-04-28T07:52:49.497Z,13.40
2019-04-28T07:55:20.051Z,12.23
2019-04-28T07:57:49.929Z,12.47
2019-04-28T08:00:26.436Z,10.73
2019-04-28T08:02:56.769Z,14.90
2019-04-28T08:05:28.519Z,16.23
2019-04-28T08:08:01.290Z,14.70
2019-04-28T08:10:33.574Z,10.87
2019-04-28T08:13:03.923Z,11.80
2019-04-28T08:15:34.285Z,11.27
2019-04-28T08:18:04.686Z,12.43
2019-04-28T08:20:35.289Z,12.37
2019-04-28T08:23:05.629Z,13.43
2019-04-28T08:25:37.836Z,15.63
2019-04-28T08:28:08.091Z,13.63
2019-04-28T08:30:38.862Z,13.73
2019-04-28T08:33:28.254Z,11.47
2019-04-28T08:35:58.702Z,14.60
2019-04-28T08:38:29.034Z,14.83
2019-04-28T08:41:01.371Z,14.47
2019-04-28T08:43:31.794Z,12.97
2019-04-28T08:46:02.210Z,10.33
2019-04-28T08:48:32.629Z,9.43
2019-04-28T08:51:02.997Z,11.67
2019-04-28T08:53:33.294Z,13.50
2019-04-28T08:56:04.779Z,12.53
2019-04-28T08:58:35.133Z,13.60
2019-04-28T09:01:05.833Z,13.70
2019-04-28T09:03:36.131Z,12.10
2019-04-28T09:06:06.484Z,10.93
2019-04-28T09:08:36.962Z,16.33
2019-04-28T09:11:07.450Z,13.30
2019-04-28T09:13:38.461Z,9.80
2019-04-28T09:16:08.954Z,15.57
2019-04-28T09:18:39.702Z,10.07
2019-04-28T09:21:10.090Z,9.47
2019-04-28T09:23:40.961Z,13.10
2019-04-28T09:26:11.322Z,9.70
2019-04-28T09:28:41.634Z,9.50
2019-04-28T09:31:13.455Z,12.00
2019-04-28T09:33:45.078Z,12.97
2019-04-28T09:36:15.514Z,13.97
2019-04-28T09:38:45.934Z,11.43
2019-04-28T09:41:16.289Z,9.23
2019-04-28T09:43:58.129Z,9.73
2019-04-28T09:46:36.109Z,9.50
2019-04-28T09:49:06.399Z,10.07
2019-04-28T09:51:38.637Z,8.57
2019-04-28T09:54:10.119Z,9.80
2019-04-28T09:56:56.182Z,11.17
2019-04-28T09:59:16.733Z,11.13
2019-04-28T10:01:47.203Z,10.50
2019-04-28T10:04:17.509Z,9.90
2019-04-28T10:06:47.855Z,9.13
2019-04-28T10:09:18.215Z,12.93
2019-04-28T10:11:48.901Z,8.60
2019-04-28T10:14:20.474Z,10.63
2019-04-28T10:16:52.003Z,11.13
2019-04-28T10:19:23.561Z,9.43
2019-04-28T10:21:53.942Z,6.40
2019-04-28T10:24:25.473Z,14.40
2019-04-28T10:26:56.272Z,11.63
2019-04-28T10:29:27.268Z,10.33
2019-04-28T10:32:01.869Z,9.33
2019-04-28T10:34:34.086Z,10.90
2019-04-28T10:37:09.303Z,12.53
2019-04-28T10:40:00.115Z,8.20
2019-04-28T10:42:30.574Z,9.30
2019-04-28T10:45:01.738Z,10.93
2019-04-28T10:47:33.109Z,6.57
2019-04-28T10:50:04.410Z,8.93
2019-04-28T10:52:35.110Z,7.03
2019-04-28T10:55:07.125Z,10.23
2019-04-28T10:57:38.061Z,6.67
2019-04-28T11:00:09.969Z,5.87
2019-04-28T11:02:43.052Z,3.77
2019-04-28T11:05:21.637Z,4.00
2019-04-28T11:07:53.282Z,2.27
2019-04-28T11:10:23.821Z,2.73
2019-04-28T11:12:54.197Z,6.13
2019-04-28T11:15:33.749Z,5.50
2019-04-28T11:18:06.400Z,4.97
2019-04-28T11:20:38.740Z,5.23
2019-04-28T11:23:08.850Z,4.47
2019-04-28T11:25:39.457Z,4.00
2019-04-28T11:28:10.378Z,4.73
2019-04-28T11:30:40.901Z,4.90
2019-04-28T11:33:30.297Z,4.87
2019-04-28T11:36:01.009Z,3.60
2019-04-28T11:38:31.383Z,3.83
2019-04-28T11:41:01.750Z,3.77
2019-04-28T11:43:32.485Z,3.83
2019-04-28T11:46:04.438Z,4.77
2019-04-28T11:48:38.301Z,4.17
2019-04-28T11:51:08.601Z,6.47
2019-04-28T11:53:39.421Z,7.50
2019-04-28T11:56:09.811Z,4.20
2019-04-28T11:58:41.967Z,6.10
2019-04-28T12:01:13.313Z,5.97
2019-04-28T12:03:43.722Z,6.20
2019-04-28T12:06:14.598Z,6.53
2019-04-28T12:08:45.002Z,3.90
2019-04-28T12:11:40.445Z,5.20
2019-04-28T12:14:16.433Z,4.73
2019-04-28T12:17:15.110Z,4.77
2019-04-28T12:19:52.001Z,6.03
2019-04-28T12:22:22.741Z,4.73
2019-04-28T12:24:53.202Z,4.00
2019-04-28T12:27:23.688Z,5.77
2019-04-28T12:29:54.097Z,6.87
2019-04-28T12:32:24.557Z,3.70
2019-04-28T12:34:55.028Z,3.53
2019-04-28T12:37:25.430Z,4.57
2019-04-28T12:39:57.468Z,3.57
2019-04-28T12:42:27.882Z,6.63
2019-04-28T12:44:58.342Z,5.17
2019-04-28T12:47:28.647Z,5.43
2019-04-28T12:50:09.415Z,2.60
2019-04-28T12:52:40.196Z,5.10
2019-04-28T12:55:10.755Z,5.10
2019-04-28T12:57:41.155Z,3.73
2019-04-28T13:00:24.682Z,3.47
2019-04-28T13:03:12.696Z,3.33
2019-04-28T13:05:44.167Z,4.07
2019-04-28T13:08:14.565Z,4.07
2019-04-28T13:10:44.893Z,3.67
2019-04-28T13:13:15.230Z,4.40
2019-04-28T13:15:45.597Z,3.43
2019-04-28T13:18:15.912Z,4.20
2019-04-28T13:20:46.306Z,3.67
2019-04-28T13:23:16.606Z,3.83
2019-04-28T13:25:46.928Z,6.73
2019-04-28T13:28:17.297Z,5.17
2019-04-28T13:30:47.693Z,3.40
2019-04-28T13:33:18.520Z,4.73
2019-04-28T13:35:49.301Z,5.87
2019-04-28T13:38:21.004Z,6.17
2019-04-28T13:40:51.480Z,3.03
2019-04-28T13:43:21.879Z,4.27
2019-04-28T13:45:52.497Z,4.23
2019-04-28T13:48:22.868Z,3.90
2019-04-28T13:50:53.321Z,3.43
2019-04-28T13:53:24.095Z,3.67
2019-04-28T13:56:03.688Z,3.93
2019-04-28T13:58:47.241Z,6.37
2019-04-28T14:01:32.943Z,4.03
2019-04-28T14:04:28.216Z,2.97
2019-04-28T14:07:06.525Z,3.10
2019-04-28T14:09:38.562Z,4.30
2019-04-28T14:12:11.218Z,4.53
2019-04-28T14:14:42.728Z,2.50
2019-04-28T14:17:14.616Z,3.30
2019-04-28T14:19:47.174Z,2.37
2019-04-28T14:22:19.536Z,2.63
2019-04-28T14:24:51.873Z,2.57
2019-04-28T14:27:22.839Z,5.93
2019-04-28T14:29:53.550Z,3.93
2019-04-28T14:32:25.242Z,5.07
2019-04-28T14:34:55.911Z,3.30
2019-04-28T14:37:26.202Z,3.47
2019-04-28T14:39:56.896Z,4.90
2019-04-28T14:42:27.035Z,4.70
2019-04-28T14:44:58.355Z,3.57
2019-04-28T14:47:28.698Z,4.20
2019-04-28T14:50:04.427Z,5.03
2019-04-28T14:52:34.850Z,5.30
2019-04-28T14:55:05.922Z,3.57
2019-04-28T14:57:36.327Z,4.47
2019-04-28T15:00:06.990Z,3.03
2019-04-28T15:02:51.291Z,4.73
2019-04-28T15:05:30.709Z,5.70
2019-04-28T15:08:09.556Z,5.50
2019-04-28T15:10:50.770Z,4.80
2019-04-28T15:13:22.178Z,5.67
2019-04-28T15:15:52.682Z,3.00
2019-04-28T15:18:23.049Z,6.83
2019-04-28T15:20:53.408Z,7.33
2019-04-28T15:23:23.806Z,4.97
2019-04-28T15:25:54.173Z,3.70
2019-04-28T15:28:26.471Z,3.43
2019-04-28T15:30:56.830Z,4.57
2019-04-28T15:33:27.253Z,3.27
2019-04-28T15:35:57.650Z,3.67
2019-04-28T15:38:28.059Z,5.53
2019-04-28T15:40:58.490Z,3.97
2019-04-28T15:43:28.838Z,3.47
2019-04-28T15:45:59.312Z,4.40
2019-04-28T15:48:31.401Z,2.77
2019-04-28T15:51:01.822Z,2.93
2019-04-28T15:53:33.954Z,7.17
2019-04-28T15:56:29.469Z,2.87
2019-04-28T15:58:59.892Z,2.80
2019-04-28T16:01:30.310Z,5.20
2019-04-28T16:04:00.615Z,4.30
2019-04-28T16:06:30.961Z,3.83
2019-04-28T16:09:02.891Z,5.00
2019-04-28T16:11:33.232Z,4.03
2019-04-28T16:14:05.365Z,7.23
2019-04-28T16:16:36.098Z,2.50
2019-04-28T16:19:06.586Z,3.30
2019-04-28T16:21:37.108Z,4.83
2019-04-28T16:24:07.422Z,5.87
2019-04-28T16:26:37.871Z,4.90
2019-04-28T16:29:08.262Z,4.83
2019-04-28T16:31:39.005Z,5.10
2019-04-28T16:34:09.441Z,5.30
2019-04-28T16:36:39.913Z,3.33
2019-04-28T16:39:11.875Z,6.17
2019-04-28T16:41:44.087Z,4.10
2019-04-28T16:44:16.014Z,5.03
2019-04-28T16:46:47.891Z,4.23
2019-04-28T16:49:19.474Z,5.90
2019-04-28T16:51:49.814Z,4.10
2019-04-28T16:54:20.174Z,4.40
2019-04-28T16:57:01.868Z,3.70
2019-04-28T16:59:57.424Z,4.83
2019-04-28T17:02:41.540Z,5.53
2019-04-28T17:05:12.216Z,3.30
2019-04-28T17:07:52.429Z,4.57
2019-04-28T17:10:14.810Z,4.73
2019-04-28T17:12:45.238Z,4.93
2019-04-28T17:15:16.030Z,7.77
2019-04-28T17:17:46.421Z,3.73
2019-04-28T17:20:16.701Z,4.50
2019-04-28T17:22:47.241Z,5.10
2019-04-28T17:25:18.516Z,6.80
2019-04-28T17:27:48.765Z,4.60
2019-04-28T17:30:19.262Z,4.47
2019-04-28T17:32:49.597Z,5.80
2019-04-28T17:35:20.005Z,4.90
2019-04-28T17:37:50.406Z,6.47
2019-04-28T17:40:22.509Z,4.77
2019-04-28T17:42:52.838Z,3.73
2019-04-28T17:45:23.150Z,3.90
2019-04-28T17:47:55.668Z,3.63
2019-04-28T17:50:25.967Z,3.37
2019-04-28T17:52:56.457Z,6.27
2019-04-28T17:55:26.815Z,3.97
2019-04-28T17:57:57.140Z,4.93
2019-04-28T18:00:54.502Z,7.40
2019-04-28T18:03:34.598Z,4.10
2019-04-28T18:06:18.002Z,2.30
2019-04-28T18:08:47.879Z,6.87
2019-04-28T18:11:18.586Z,10.13
2019-04-28T18:13:48.940Z,8.80
2019-04-28T18:16:41.205Z,5.27
2019-04-28T18:19:12.503Z,6.20
2019-04-28T18:21:42.809Z,4.40
2019-04-28T18:24:13.299Z,7.67
2019-04-28T18:26:43.601Z,5.50
2019-04-28T18:29:13.911Z,4.70
2019-04-28T18:32:15.581Z,6.10
2019-04-28T18:34:57.869Z,5.27
2019-04-28T18:37:47.258Z,7.13
2019-04-28T18:40:33.290Z,6.20
2019-04-28T18:43:12.431Z,7.17
2019-04-28T18:45:43.833Z,7.27
2019-04-28T18:48:14.157Z,7.80
2019-04-28T18:50:44.515Z,3.93
2019-04-28T18:53:19.208Z,4.27
2019-04-28T18:55:51.081Z,3.10
2019-04-28T18:58:21.130Z,5.13
2019-04-28T19:01:00.255Z,4.60
2019-04-28T19:03:30.784Z,4.50
2019-04-28T19:06:01.297Z,5.50
2019-04-28T19:08:49.263Z,5.60
2019-04-28T19:11:33.719Z,3.93
2019-04-28T19:14:16.606Z,5.30
2019-04-28T19:17:06.829Z,3.57
2019-04-28T19:19:38.094Z,3.60
2019-04-28T19:22:08.484Z,5.07
2019-04-28T19:24:39.038Z,4.70
2019-04-28T19:27:09.396Z,7.40
2019-04-28T19:29:40.274Z,6.60
2019-04-28T19:32:11.677Z,5.83
2019-04-28T19:34:41.985Z,4.40
2019-04-28T19:37:12.365Z,4.20
2019-04-28T19:39:43.183Z,5.93
2019-04-28T19:42:13.930Z,3.30
2019-04-28T19:44:44.323Z,3.90
2019-04-28T19:47:14.721Z,4.83
2019-04-28T19:49:45.333Z,4.63
2019-04-28T19:52:15.632Z,2.77
2019-04-28T19:55:05.907Z,8.87
2019-04-28T19:57:44.940Z,4.00
2019-04-28T20:00:25.646Z,5.20
2019-04-28T20:02:56.210Z,5.53
2019-04-28T20:05:26.539Z,5.63
2019-04-28T20:07:56.898Z,5.30
2019-04-28T20:10:27.230Z,5.17
2019-04-28T20:12:57.600Z,8.83
2019-04-28T20:15:27.930Z,3.73
2019-04-28T20:17:59.073Z,5.30
2019-04-28T20:20:29.396Z,4.70
2019-04-28T20:22:59.709Z,5.17
2019-04-28T20:25:30.089Z,4.33
2019-04-28T20:28:00.354Z,4.20
2019-04-28T20:30:30.779Z,6.77
2019-04-28T20:33:07.517Z,4.67
2019-04-28T20:35:36.585Z,6.23
2019-04-28T20:38:25.146Z,5.73
2019-04-28T20:41:06.578Z,5.27
2019-04-28T20:43:40.324Z,6.90
2019-04-28T20:46:11.264Z,5.17
2019-04-28T20:48:47.399Z,9.17
2019-04-28T20:51:20.732Z,4.23
2019-04-28T20:53:50.442Z,6.90
2019-04-28T20:56:24.290Z,7.33
2019-04-28T20:58:55.851Z,7.97
2019-04-28T21:01:28.948Z,7.67
2019-04-28T21:03:59.903Z,8.20
2019-04-28T21:06:32.772Z,6.33
2019-04-28T21:09:09.598Z,6.13
2019-04-28T21:11:39.604Z,9.57
2019-04-28T21:14:10.914Z,4.83
2019-04-28T21:16:45.893Z,5.77
2019-04-28T21:19:17.383Z,4.83
2019-04-28T21:21:48.757Z,4.37
2019-04-28T21:24:19.139Z,5.23
2019-04-28T21:26:49.467Z,5.40
2019-04-28T21:29:19.762Z,6.10
2019-04-28T21:31:50.156Z,9.53
2019-04-28T21:34:20.665Z,7.43
2019-04-28T21:36:50.982Z,5.57
2019-04-28T21:39:21.404Z,5.87
2019-04-28T21:41:52.890Z,7.83
2019-04-28T21:44:29.754Z,4.07
2019-04-28T21:47:27.961Z,4.63
2019-04-28T21:49:58.643Z,5.43
2019-04-28T21:52:29.213Z,5.40
2019-04-28T21:54:59.517Z,8.47
2019-04-28T21:57:29.869Z,8.70
2019-04-28T22:00:00.251Z,6.47
2019-04-28T22:02:30.654Z,4.53
2019-04-28T22:05:01.047Z,5.47
2019-04-28T22:07:31.413Z,5.47
2019-04-28T22:10:01.737Z,5.43
2019-04-28T22:12:32.209Z,6.33
2019-04-28T22:15:02.501Z,5.73
2019-04-28T22:17:32.802Z,8.00
2019-04-28T22:20:03.172Z,5.47
2019-04-28T22:22:34.560Z,8.37
2019-04-28T22:25:10.605Z,7.80
2019-04-28T22:27:42.066Z,6.87
2019-04-28T22:30:12.801Z,5.93
2019-04-28T22:32:44.282Z,7.20
2019-04-28T22:35:16.117Z,8.00
2019-04-28T22:37:46.413Z,6.97
2019-04-28T22:40:17.071Z,4.70
2019-04-28T22:42:47.367Z,5.70
2019-04-28T22:45:17.978Z,6.77
2019-04-28T22:47:48.364Z,7.30
2019-04-28T22:50:42.445Z,6.77
2019-04-28T22:53:13.938Z,7.77
2019-04-28T22:55:59.585Z,3.93
2019-04-28T22:58:45.586Z,8.33
2019-04-28T23:01:29.358Z,6.60
2019-04-28T23:04:06.097Z,7.23
2019-04-28T23:06:36.452Z,8.87
2019-04-28T23:09:10.729Z,5.20
2019-04-28T23:11:44.227Z,9.30
2019-04-28T23:14:14.289Z,6.40
2019-04-28T23:16:44.677Z,7.77
2019-04-28T23:19:16.640Z,6.13
2019-04-28T23:21:53.057Z,6.27
2019-04-28T23:24:23.429Z,7.87
2019-04-28T23:26:53.769Z,5.97
2019-04-28T23:29:24.066Z,7.77
2019-04-28T23:31:54.482Z,7.13
2019-04-28T23:34:24.867Z,7.20
2019-04-28T23:36:55.209Z,8.30
2019-04-28T23:39:25.515Z,7.37
2019-04-28T23:42:03.875Z,6.80
2019-04-28T23:44:34.196Z,7.00
2019-04-28T23:47:06.150Z,9.40
2019-04-28T23:49:36.468Z,6.13
2019-04-28T23:52:26.346Z,7.17
2019-04-28T23:54:58.993Z,9.33
2019-04-28T23:57:29.290Z,8.27
2019-04-28T23:59:59.589Z,7.23
